createdAt,value
2023-02-27T00:01:42.166Z,0.30
2023-02-27T00:06:43.593Z,0.30
2023-02-27T00:11:45.075Z,0.30
2023-02-27T00:16:46.507Z,0.30
2023-02-27T00:21:47.938Z,0.40
2023-02-27T00:26:49.365Z,0.30
2023-02-27T00:31:50.855Z,0.30
2023-02-27T00:36:52.416Z,0.30
2023-02-27T00:41:53.863Z,0.30
2023-02-27T00:46:55.378Z,0.30
2023-02-27T00:51:56.891Z,0.30
2023-02-27T00:56:58.359Z,0.30
2023-02-27T01:01:59.778Z,0.30
2023-02-27T01:07:01.219Z,0.30
2023-02-27T01:12:02.703Z,0.30
2023-02-27T01:17:04.170Z,0.30
2023-02-27T01:22:05.639Z,0.30
2023-02-27T01:27:07.073Z,0.30
2023-02-27T01:32:08.638Z,0.30
2023-02-27T01:37:10.193Z,0.30
2023-02-27T01:42:13.197Z,0.30
2023-02-27T01:47:14.724Z,0.30
2023-02-27T01:52:16.155Z,0.30
2023-02-27T01:57:17.623Z,0.30
2023-02-27T02:02:19.133Z,0.30
2023-02-27T02:07:20.629Z,0.30
2023-02-27T02:12:22.056Z,0.30
2023-02-27T02:17:23.524Z,0.30
2023-02-27T02:22:24.993Z,0.30
2023-02-27T02:27:26.416Z,0.30
2023-02-27T02:32:27.872Z,0.20
2023-02-27T02:37:29.297Z,0.20
2023-02-27T02:42:30.713Z,0.30
2023-02-27T02:47:32.170Z,0.20
2023-02-27T02:52:33.609Z,0.20
2023-02-27T02:57:35.058Z,0.20
2023-02-27T03:02:36.541Z,0.20
2023-02-27T03:07:38.063Z,0.20
2023-02-27T03:12:39.542Z,0.20
2023-02-27T03:17:40.976Z,0.20
2023-02-27T03:22:42.438Z,0.20
2023-02-27T03:27:43.875Z,0.30
2023-02-27T03:32:45.326Z,0.30
2023-02-27T03:37:46.797Z,0.30
2023-02-27T03:42:48.266Z,0.30
2023-02-27T03:47:49.705Z,0.20
2023-02-27T03:52:51.164Z,0.30
2023-02-27T03:57:52.618Z,0.30
2023-02-27T04:02:54.082Z,0.20
2023-02-27T04:07:55.545Z,0.20
2023-02-27T04:12:57.005Z,0.20
2023-02-27T04:17:58.460Z,0.20
2023-02-27T04:22:59.913Z,0.20
2023-02-27T04:28:01.340Z,0.20
2023-02-27T04:33:02.804Z,0.20
2023-02-27T04:38:04.272Z,0.20
2023-02-27T04:43:05.746Z,0.20
2023-02-27T04:48:07.224Z,0.20
2023-02-27T04:53:08.690Z,0.10
2023-02-27T04:58:10.145Z,0.10
2023-02-27T05:03:11.618Z,0.10
2023-02-27T05:08:13.054Z,0.10
2023-02-27T05:13:14.490Z,0.10
2023-02-27T05:18:15.952Z,0.00
2023-02-27T05:23:17.425Z,0.10
2023-02-27T05:28:18.884Z,0.10
2023-02-27T05:33:20.363Z,0.10
2023-02-27T05:38:21.827Z,0.10
2023-02-27T05:43:23.337Z,0.10
2023-02-27T05:48:24.799Z,0.10
2023-02-27T05:53:26.237Z,0.10
2023-02-27T05:58:27.669Z,0.10
2023-02-27T06:03:29.182Z,0.10
2023-02-27T06:08:30.644Z,0.10
2023-02-27T06:13:32.079Z,0.10
2023-02-27T06:18:33.542Z,0.10
2023-02-27T06:23:34.996Z,0.20
2023-02-27T06:28:36.455Z,0.20
2023-02-27T06:33:37.892Z,0.20
2023-02-27T06:38:39.316Z,0.20
2023-02-27T06:43:40.769Z,0.30
2023-02-27T06:48:42.228Z,0.30
2023-02-27T06:53:43.661Z,0.40
2023-02-27T06:58:45.102Z,0.50
2023-02-27T07:03:46.560Z,0.50
2023-02-27T07:09:01.406Z,0.60
2023-02-27T07:14:08.221Z,0.70
2023-02-27T07:19:09.654Z,0.80
2023-02-27T07:24:11.124Z,0.80
2023-02-27T07:29:12.582Z,0.90
2023-02-27T07:34:13.996Z,1.00
2023-02-27T07:39:15.455Z,1.00
2023-02-27T07:44:16.879Z,1.10
2023-02-27T07:49:18.352Z,1.20
2023-02-27T07:54:19.792Z,1.20
2023-02-27T07:59:21.242Z,1.30
2023-02-27T08:04:22.741Z,1.40
2023-02-27T08:09:24.177Z,1.40
2023-02-27T08:14:25.639Z,1.50
2023-02-27T08:19:27.114Z,1.60
2023-02-27T08:24:28.556Z,1.80
2023-02-27T08:29:30.012Z,2.00
2023-02-27T08:34:31.440Z,2.10
2023-02-27T08:39:32.880Z,2.30
2023-02-27T08:44:34.304Z,2.50
2023-02-27T08:49:35.756Z,2.70
2023-02-27T08:54:37.195Z,2.90
2023-02-27T08:59:38.662Z,3.10
2023-02-27T09:04:40.120Z,3.20
2023-02-27T09:09:41.605Z,3.40
2023-02-27T09:14:43.075Z,3.70
2023-02-27T09:19:44.545Z,3.90
2023-02-27T09:24:46.025Z,4.20
2023-02-27T09:29:47.457Z,4.50
2023-02-27T09:34:48.890Z,4.60
2023-02-27T09:39:50.302Z,4.70
2023-02-27T09:44:51.812Z,4.80
2023-02-27T09:49:53.278Z,5.00
2023-02-27T09:54:54.741Z,5.10
2023-02-27T09:59:56.210Z,5.20
2023-02-27T10:04:57.639Z,5.40
2023-02-27T10:09:59.071Z,5.60
2023-02-27T10:15:00.552Z,5.80
2023-02-27T10:20:02.049Z,6.00
2023-02-27T10:25:03.495Z,6.20
2023-02-27T10:30:04.967Z,6.30
2023-02-27T10:35:06.444Z,6.40
2023-02-27T10:40:07.867Z,6.60
2023-02-27T10:45:09.337Z,6.70
2023-02-27T10:50:10.804Z,7.00
2023-02-27T10:55:12.241Z,7.30
2023-02-27T11:00:13.706Z,7.40
2023-02-27T11:05:15.153Z,7.70
2023-02-27T11:10:16.683Z,7.80
2023-02-27T11:15:18.203Z,8.00
2023-02-27T11:20:19.644Z,8.00
2023-02-27T11:25:21.080Z,8.10
2023-02-27T11:30:22.567Z,8.20
2023-02-27T11:35:24.070Z,8.20
2023-02-27T11:40:25.524Z,8.40
2023-02-27T11:46:07.349Z,8.40
2023-02-27T11:50:48.425Z,8.40
2023-02-27T11:55:49.900Z,8.40
2023-02-27T12:00:51.320Z,8.50
2023-02-27T12:05:52.807Z,8.10
2023-02-27T12:10:59.293Z,8.10
2023-02-27T12:16:06.083Z,8.10
2023-02-27T12:21:07.584Z,8.00
2023-02-27T12:26:09.028Z,7.90
2023-02-27T12:31:10.558Z,7.70
2023-02-27T12:36:12.027Z,7.60
2023-02-27T12:41:13.490Z,7.60
2023-02-27T12:46:15.023Z,7.40
2023-02-27T12:51:16.528Z,7.30
2023-02-27T12:56:18.000Z,7.10
2023-02-27T13:01:19.534Z,7.10
2023-02-27T13:06:21.008Z,7.00
2023-02-27T13:11:22.477Z,6.70
2023-02-27T13:16:23.977Z,6.60
2023-02-27T13:21:25.864Z,6.50
2023-02-27T13:26:27.565Z,6.20
2023-02-27T13:31:29.424Z,6.10
2023-02-27T13:36:31.026Z,6.00
2023-02-27T13:41:35.492Z,5.90
2023-02-27T13:46:37.382Z,5.70
2023-02-27T13:51:38.830Z,5.60
2023-02-27T13:56:40.256Z,5.70
2023-02-27T14:01:41.714Z,5.60
2023-02-27T14:06:43.192Z,5.60
2023-02-27T14:11:44.688Z,5.60
2023-02-27T14:16:46.122Z,5.60
2023-02-27T14:21:47.614Z,5.50
2023-02-27T14:26:49.109Z,5.50
2023-02-27T14:31:50.641Z,5.40
2023-02-27T14:36:52.121Z,5.40
2023-02-27T14:41:53.600Z,5.40
2023-02-27T14:46:55.081Z,5.40
2023-02-27T14:51:56.602Z,5.40
2023-02-27T14:56:58.116Z,5.30
2023-02-27T15:01:59.615Z,5.30
2023-02-27T15:07:01.145Z,5.20
2023-02-27T15:12:04.495Z,5.10
2023-02-27T15:17:06.319Z,5.00
2023-02-27T15:22:07.784Z,4.80
2023-02-27T15:27:09.222Z,4.70
2023-02-27T15:32:10.683Z,4.60
2023-02-27T15:37:12.162Z,4.50
2023-02-27T15:42:13.614Z,4.50
2023-02-27T15:47:15.075Z,4.40
2023-02-27T15:52:16.509Z,4.20
2023-02-27T15:57:17.963Z,4.10
2023-02-27T16:02:19.430Z,4.10
2023-02-27T16:07:20.906Z,3.90
2023-02-27T16:12:22.389Z,3.80
2023-02-27T16:17:23.829Z,3.70
2023-02-27T16:22:25.299Z,3.50
2023-02-27T16:27:26.777Z,3.10
2023-02-27T16:32:28.290Z,2.80
2023-02-27T16:37:29.735Z,2.70
2023-02-27T16:42:32.283Z,2.80
2023-02-27T16:47:33.726Z,2.90
2023-02-27T16:52:35.201Z,2.90
2023-02-27T16:57:36.682Z,2.90
2023-02-27T17:02:38.110Z,2.90
2023-02-27T17:07:39.555Z,2.90
2023-02-27T17:12:43.500Z,2.80
2023-02-27T17:17:45.254Z,2.80
2023-02-27T17:22:46.726Z,2.70
2023-02-27T17:27:48.192Z,2.70
2023-02-27T17:32:49.658Z,2.50
2023-02-27T17:37:51.119Z,2.40
2023-02-27T17:42:52.538Z,2.30
2023-02-27T17:47:53.964Z,2.20
2023-02-27T17:52:55.420Z,2.10
2023-02-27T17:57:56.847Z,2.00
2023-02-27T18:02:58.297Z,1.80
2023-02-27T18:07:59.726Z,1.80
2023-02-27T18:13:01.155Z,1.60
2023-02-27T18:18:02.589Z,1.50
2023-02-27T18:23:04.062Z,1.40
2023-02-27T18:28:05.693Z,1.20
2023-02-27T18:33:07.167Z,1.20
2023-02-27T18:38:08.609Z,1.10
2023-02-27T18:43:10.088Z,0.90
2023-02-27T18:48:11.668Z,0.80
2023-02-27T18:53:13.269Z,0.70
2023-02-27T18:58:14.699Z,0.50
2023-02-27T19:03:16.203Z,0.30
2023-02-27T19:08:17.713Z,0.20
2023-02-27T19:13:19.232Z,0.10
2023-02-27T19:18:20.654Z,0.00
2023-02-27T19:23:22.171Z,-0.20
2023-02-27T19:28:23.608Z,-0.30
2023-02-27T19:33:25.071Z,-0.40
2023-02-27T19:38:26.562Z,-0.60
2023-02-27T19:43:28.019Z,-0.70
2023-02-27T19:48:29.458Z,-0.80
2023-02-27T19:53:30.912Z,-1.00
2023-02-27T19:58:32.360Z,-1.10
2023-02-27T20:03:33.842Z,-1.30
2023-02-27T20:08:35.315Z,-1.40
2023-02-27T20:13:36.761Z,-1.50
2023-02-27T20:18:39.291Z,-1.60
2023-02-27T20:23:42.216Z,-1.70
2023-02-27T20:28:43.642Z,-1.80
2023-02-27T20:33:45.101Z,-2.00
2023-02-27T20:38:46.533Z,-1.90
2023-02-27T20:43:48.169Z,-2.00
2023-02-27T20:48:49.618Z,-2.10
2023-02-27T20:53:51.089Z,-2.20
2023-02-27T20:58:52.531Z,-2.20
2023-02-27T21:03:54.048Z,-2.20
2023-02-27T21:08:55.590Z,-2.20
2023-02-27T21:13:57.093Z,-2.30
2023-02-27T21:18:58.597Z,-2.30
2023-02-27T21:24:00.101Z,-2.30
2023-02-27T21:29:01.753Z,-2.20
2023-02-27T21:34:03.299Z,-2.10
2023-02-27T21:39:04.978Z,-2.00
2023-02-27T21:44:06.550Z,-1.90
2023-02-27T21:49:08.014Z,-1.80
2023-02-27T21:54:09.467Z,-1.80
2023-02-27T21:59:10.969Z,-1.70
2023-02-27T22:04:12.399Z,-1.70
2023-02-27T22:09:13.859Z,-1.60
2023-02-27T22:14:15.490Z,-1.60
2023-02-27T22:19:16.966Z,-1.50
2023-02-27T22:24:18.481Z,-1.40
2023-02-27T22:29:19.929Z,-1.40
2023-02-27T22:34:21.466Z,-1.40
2023-02-27T22:39:22.932Z,-1.30
2023-02-27T22:44:24.419Z,-1.30
2023-02-27T22:49:25.893Z,-1.20
2023-02-27T22:54:27.337Z,-1.10
2023-02-27T22:59:28.811Z,-1.10
2023-02-27T23:04:30.324Z,-1.00
2023-02-27T23:09:31.965Z,-1.00
2023-02-27T23:14:33.463Z,-1.00
2023-02-27T23:19:34.960Z,-0.90
2023-02-27T23:24:36.468Z,-0.90
2023-02-27T23:29:37.893Z,-0.80
2023-02-27T23:34:48.944Z,-0.80
2023-02-27T23:39:51.431Z,-0.80
2023-02-27T23:44:53.087Z,-0.70
2023-02-27T23:49:54.556Z,-0.70
2023-02-27T23:54:56.028Z,-0.70
2023-02-27T23:59:57.461Z,-0.60
